createdAt,value
2022-12-06T00:01:32.485Z,2.80
2022-12-06T00:04:06.297Z,2.70
2022-12-06T00:06:37.830Z,2.70
2022-12-06T00:09:05.674Z,2.70
2022-12-06T00:11:34.613Z,2.70
2022-12-06T00:14:04.942Z,2.70
2022-12-06T00:16:33.914Z,2.70
2022-12-06T00:19:01.979Z,2.70
2022-12-06T00:21:31.493Z,2.70
2022-12-06T00:24:07.560Z,2.70
2022-12-06T00:26:41.240Z,2.70
2022-12-06T00:29:14.471Z,2.70
2022-12-06T00:31:41.771Z,2.80
2022-12-06T00:34:09.183Z,2.80
2022-12-06T00:36:38.754Z,2.70
2022-12-06T00:39:13.141Z,2.70
2022-12-06T00:41:41.141Z,2.70
2022-12-06T00:44:09.427Z,2.70
2022-12-06T00:46:37.241Z,2.70
2022-12-06T00:49:06.833Z,2.70
2022-12-06T00:51:35.465Z,2.70
2022-12-06T00:54:03.116Z,2.70
2022-12-06T00:56:30.654Z,2.80
2022-12-06T00:58:58.173Z,2.70
2022-12-06T01:01:29.209Z,2.70
2022-12-06T01:04:02.122Z,2.70
2022-12-06T01:06:32.481Z,2.70
2022-12-06T01:09:02.981Z,2.70
2022-12-06T01:11:31.328Z,2.70
2022-12-06T01:13:59.023Z,2.70
2022-12-06T01:16:29.482Z,2.80
2022-12-06T01:18:59.500Z,2.80
2022-12-06T01:21:27.486Z,2.80
2022-12-06T01:23:54.707Z,2.80
2022-12-06T01:26:27.066Z,2.80
2022-12-06T01:28:54.741Z,2.80
2022-12-06T01:31:22.041Z,2.80
2022-12-06T01:33:49.340Z,2.80
2022-12-06T01:36:21.290Z,2.80
2022-12-06T01:38:57.503Z,2.70
2022-12-06T01:41:27.069Z,2.80
2022-12-06T01:43:55.433Z,2.70
2022-12-06T01:46:41.764Z,2.70
2022-12-06T01:49:11.937Z,2.70
2022-12-06T01:51:44.024Z,2.70
2022-12-06T01:54:13.501Z,2.70
2022-12-06T01:56:41.329Z,2.70
2022-12-06T01:59:10.503Z,2.70
2022-12-06T02:01:39.500Z,2.80
2022-12-06T02:04:07.424Z,2.70
2022-12-06T02:06:34.987Z,2.80
2022-12-06T02:09:05.118Z,2.80
2022-12-06T02:11:35.496Z,2.80
2022-12-06T02:14:06.422Z,2.70
2022-12-06T02:16:39.500Z,2.80
2022-12-06T02:19:27.796Z,2.80
2022-12-06T02:22:09.143Z,2.80
2022-12-06T02:24:55.227Z,2.80
2022-12-06T02:27:31.711Z,2.70
2022-12-06T02:30:18.884Z,2.70
2022-12-06T02:32:59.467Z,2.70
2022-12-06T02:35:39.506Z,2.70
2022-12-06T02:38:18.029Z,2.70
2022-12-06T02:40:55.728Z,2.70
2022-12-06T02:43:28.267Z,2.70
2022-12-06T02:45:59.588Z,2.70
2022-12-06T02:48:27.188Z,2.80
2022-12-06T02:51:02.902Z,2.80
2022-12-06T02:53:34.615Z,2.80
2022-12-06T02:56:02.398Z,2.80
2022-12-06T02:58:34.054Z,2.80
2022-12-06T03:01:15.380Z,2.80
2022-12-06T03:04:10.103Z,2.80
2022-12-06T03:07:07.532Z,2.80
2022-12-06T03:09:48.009Z,2.80
2022-12-06T03:12:20.865Z,2.80
2022-12-06T03:15:05.518Z,2.80
2022-12-06T03:18:08.320Z,2.80
2022-12-06T03:20:50.056Z,2.80
2022-12-06T03:23:29.238Z,2.80
2022-12-06T03:26:00.184Z,2.80
2022-12-06T03:28:29.096Z,2.80
2022-12-06T03:31:01.429Z,2.80
2022-12-06T03:33:31.556Z,2.80
2022-12-06T03:35:59.696Z,2.80
2022-12-06T03:38:58.449Z,2.80
2022-12-06T03:41:30.213Z,2.80
2022-12-06T03:43:59.349Z,2.80
2022-12-06T03:46:34.833Z,2.80
2022-12-06T03:49:07.910Z,2.80
2022-12-06T03:51:37.704Z,2.80
2022-12-06T03:54:08.123Z,2.80
2022-12-06T03:56:37.970Z,2.80
2022-12-06T03:59:09.736Z,2.80
2022-12-06T04:01:37.510Z,2.80
2022-12-06T04:04:05.091Z,2.80
2022-12-06T04:06:32.546Z,2.80
2022-12-06T04:09:19.558Z,2.80
2022-12-06T04:11:47.312Z,2.90
2022-12-06T04:14:14.418Z,2.90
2022-12-06T04:16:59.966Z,2.90
2022-12-06T04:19:27.228Z,2.90
2022-12-06T04:22:12.758Z,2.90
2022-12-06T04:24:39.933Z,2.90
2022-12-06T04:27:25.723Z,2.90
2022-12-06T04:30:11.406Z,2.90
2022-12-06T04:32:57.198Z,2.90
2022-12-06T04:35:42.879Z,2.90
2022-12-06T04:38:28.905Z,2.80
2022-12-06T04:40:56.001Z,2.80
2022-12-06T04:43:41.628Z,2.80
2022-12-06T04:46:12.388Z,2.80
2022-12-06T04:48:40.373Z,2.80
2022-12-06T04:51:07.987Z,2.80
2022-12-06T04:53:35.041Z,2.80
2022-12-06T04:56:02.319Z,2.80
2022-12-06T04:58:29.461Z,2.80
2022-12-06T05:00:56.632Z,2.90
2022-12-06T05:03:23.774Z,2.90
2022-12-06T05:05:50.950Z,2.90
2022-12-06T05:08:18.393Z,2.90
2022-12-06T05:10:52.377Z,2.90
2022-12-06T05:13:20.664Z,2.90
2022-12-06T05:15:51.820Z,2.90
2022-12-06T05:18:19.556Z,2.90
2022-12-06T05:20:47.343Z,2.90
2022-12-06T05:23:15.167Z,2.90
2022-12-06T05:25:42.417Z,2.90
2022-12-06T05:28:10.329Z,2.90
2022-12-06T05:30:37.438Z,2.90
2022-12-06T05:33:04.582Z,2.90
2022-12-06T05:35:31.809Z,2.90
2022-12-06T05:37:59.030Z,2.90
2022-12-06T05:40:26.279Z,2.90
2022-12-06T05:42:53.462Z,2.90
2022-12-06T05:45:20.824Z,2.90
2022-12-06T05:47:48.014Z,2.90
2022-12-06T05:50:15.871Z,2.90
2022-12-06T05:52:43.227Z,3.00
2022-12-06T05:55:10.407Z,3.00
2022-12-06T05:57:40.118Z,3.00
2022-12-06T06:00:10.396Z,3.00
2022-12-06T06:02:37.729Z,3.00
2022-12-06T06:05:05.687Z,3.00
2022-12-06T06:07:32.952Z,3.00
2022-12-06T06:10:00.451Z,3.00
2022-12-06T06:12:27.957Z,3.00
2022-12-06T06:14:55.200Z,3.00
2022-12-06T06:17:22.585Z,3.00
2022-12-06T06:19:51.559Z,3.00
2022-12-06T06:22:20.344Z,3.10
2022-12-06T06:24:47.687Z,3.10
2022-12-06T06:27:14.895Z,3.10
2022-12-06T06:29:45.350Z,3.10
2022-12-06T06:32:14.047Z,3.10
2022-12-06T06:34:41.297Z,3.10
2022-12-06T06:37:08.392Z,3.10
2022-12-06T06:39:35.566Z,3.20
2022-12-06T06:42:02.771Z,3.20
2022-12-06T06:44:30.110Z,3.10
2022-12-06T06:46:57.299Z,3.20
2022-12-06T06:49:24.975Z,3.20
2022-12-06T06:51:52.075Z,3.20
2022-12-06T06:54:19.339Z,3.20
2022-12-06T06:56:46.841Z,3.20
2022-12-06T06:59:13.958Z,3.20
2022-12-06T07:01:41.110Z,3.20
2022-12-06T07:04:08.326Z,3.20
2022-12-06T07:06:35.488Z,3.30
2022-12-06T07:09:02.816Z,3.30
2022-12-06T07:11:30.092Z,3.30
2022-12-06T07:13:57.196Z,3.30
2022-12-06T07:16:24.449Z,3.30
2022-12-06T07:18:51.819Z,3.30
2022-12-06T07:21:19.229Z,3.30
2022-12-06T07:23:46.860Z,3.30
2022-12-06T07:26:17.084Z,3.30
2022-12-06T07:28:46.340Z,3.40
2022-12-06T07:31:17.870Z,3.40
2022-12-06T07:33:46.351Z,3.40
2022-12-06T07:36:14.875Z,3.40
2022-12-06T07:38:43.955Z,3.40
2022-12-06T07:41:32.209Z,3.40
2022-12-06T07:44:18.990Z,3.50
2022-12-06T07:46:47.872Z,3.50
2022-12-06T07:49:17.116Z,3.50
2022-12-06T07:51:51.027Z,3.50
2022-12-06T07:54:18.272Z,3.50
2022-12-06T07:56:45.493Z,3.60
2022-12-06T07:59:13.368Z,3.60
2022-12-06T08:01:41.085Z,3.60
2022-12-06T08:04:08.648Z,3.60
2022-12-06T08:06:36.117Z,3.60
2022-12-06T08:09:03.731Z,3.70
2022-12-06T08:11:31.018Z,3.70
2022-12-06T08:13:58.246Z,3.70
2022-12-06T08:16:25.323Z,3.70
2022-12-06T08:18:52.969Z,3.80
2022-12-06T08:21:20.483Z,3.80
2022-12-06T08:23:47.928Z,3.80
2022-12-06T08:26:16.913Z,3.80
2022-12-06T08:28:44.151Z,3.80
2022-12-06T08:31:15.569Z,3.80
2022-12-06T08:33:42.963Z,3.90
2022-12-06T08:36:12.928Z,3.90
2022-12-06T08:38:43.996Z,3.90
2022-12-06T08:41:31.470Z,3.90
2022-12-06T08:44:00.475Z,3.90
2022-12-06T08:46:28.946Z,3.80
2022-12-06T08:48:56.326Z,3.90
2022-12-06T08:51:23.560Z,3.90
2022-12-06T08:53:53.270Z,3.90
2022-12-06T08:56:20.476Z,3.90
2022-12-06T08:58:47.902Z,4.00
2022-12-06T09:01:21.523Z,4.00
2022-12-06T09:03:48.816Z,4.00
2022-12-06T09:06:16.674Z,4.00
2022-12-06T09:08:43.942Z,4.10
2022-12-06T09:11:11.072Z,4.10
2022-12-06T09:13:39.259Z,4.10
2022-12-06T09:16:08.653Z,4.20
2022-12-06T09:18:36.268Z,4.20
2022-12-06T09:21:07.590Z,4.20
2022-12-06T09:23:35.990Z,4.20
2022-12-06T09:26:05.101Z,4.30
2022-12-06T09:28:34.083Z,4.30
2022-12-06T09:31:02.568Z,4.30
2022-12-06T09:33:29.768Z,4.30
2022-12-06T09:35:58.903Z,4.40
2022-12-06T09:38:29.626Z,4.40
2022-12-06T09:41:45.124Z,4.40
2022-12-06T09:44:39.957Z,4.50
2022-12-06T09:47:31.636Z,4.50
2022-12-06T09:50:35.967Z,4.50
2022-12-06T09:53:41.371Z,4.50
2022-12-06T09:56:58.258Z,4.50
2022-12-06T09:59:34.249Z,4.60
2022-12-06T10:02:24.939Z,4.60
2022-12-06T10:05:08.632Z,4.60
2022-12-06T10:08:00.905Z,4.70
2022-12-06T10:10:36.108Z,4.70
2022-12-06T10:13:16.625Z,4.70
2022-12-06T10:15:59.179Z,4.80
2022-12-06T10:18:29.345Z,4.70
2022-12-06T10:21:44.780Z,4.80
2022-12-06T10:24:26.751Z,4.80
2022-12-06T10:26:58.023Z,4.80
2022-12-06T10:29:44.860Z,4.80
2022-12-06T10:32:40.346Z,4.80
2022-12-06T10:35:32.387Z,4.80
2022-12-06T10:38:20.597Z,4.80
2022-12-06T10:41:14.057Z,4.90
2022-12-06T10:44:05.273Z,4.90
2022-12-06T10:46:57.578Z,4.90
2022-12-06T10:50:02.193Z,4.90
2022-12-06T10:53:12.982Z,4.90
2022-12-06T10:56:02.589Z,4.90
2022-12-06T10:58:45.971Z,4.90
2022-12-06T11:01:19.061Z,4.90
2022-12-06T11:04:03.422Z,5.00
2022-12-06T11:07:18.121Z,5.00
2022-12-06T11:09:50.116Z,5.10
2022-12-06T11:12:34.224Z,5.10
2022-12-06T11:15:27.733Z,5.10
2022-12-06T11:18:05.526Z,5.10
2022-12-06T11:20:59.312Z,5.10
2022-12-06T11:23:53.463Z,5.10
2022-12-06T11:26:40.577Z,5.20
2022-12-06T11:29:12.768Z,5.10
2022-12-06T11:32:02.857Z,5.20
2022-12-06T11:34:39.245Z,5.20
2022-12-06T11:37:07.084Z,5.20
2022-12-06T11:39:34.610Z,5.20
2022-12-06T11:42:04.662Z,5.20
2022-12-06T11:44:59.703Z,5.20
2022-12-06T11:47:27.339Z,5.20
2022-12-06T11:50:00.371Z,5.20
2022-12-06T11:52:37.524Z,5.20
2022-12-06T11:55:27.722Z,5.20
2022-12-06T11:58:19.244Z,5.20
2022-12-06T12:00:59.275Z,5.20
2022-12-06T12:03:32.599Z,5.20
2022-12-06T12:06:29.388Z,5.20
2022-12-06T12:09:00.541Z,5.20
2022-12-06T12:11:34.410Z,5.20
2022-12-06T12:14:04.612Z,5.20
2022-12-06T12:16:46.666Z,5.30
2022-12-06T12:19:44.184Z,5.30
2022-12-06T12:22:46.669Z,5.30
2022-12-06T12:25:31.722Z,5.30
2022-12-06T12:28:03.797Z,5.30
2022-12-06T12:30:38.469Z,5.40
2022-12-06T12:33:08.581Z,5.30
2022-12-06T12:36:04.415Z,5.40
2022-12-06T12:38:54.157Z,5.40
2022-12-06T12:41:27.895Z,5.40
2022-12-06T12:44:35.867Z,5.40
2022-12-06T12:46:57.592Z,5.50
2022-12-06T12:49:36.728Z,5.50
2022-12-06T12:52:51.362Z,5.50
2022-12-06T12:55:32.277Z,5.50
2022-12-06T12:58:00.811Z,5.50
2022-12-06T13:00:30.585Z,5.40
2022-12-06T13:03:00.816Z,5.40
2022-12-06T13:05:35.596Z,5.40
2022-12-06T13:08:23.570Z,5.40
2022-12-06T13:10:58.780Z,5.30
2022-12-06T13:13:46.194Z,5.30
2022-12-06T13:16:17.993Z,5.30
2022-12-06T13:18:52.980Z,5.30
2022-12-06T13:21:27.901Z,5.30
2022-12-06T13:24:20.733Z,5.30
2022-12-06T13:27:14.837Z,5.30
2022-12-06T13:29:46.626Z,5.30
2022-12-06T13:32:24.250Z,5.20
2022-12-06T13:34:57.714Z,5.20
2022-12-06T13:37:34.162Z,5.20
2022-12-06T13:40:02.554Z,5.20
2022-12-06T13:42:38.663Z,5.20
2022-12-06T13:45:27.490Z,5.20
2022-12-06T13:47:54.702Z,5.20
2022-12-06T13:50:21.838Z,5.10
2022-12-06T13:52:49.010Z,5.10
2022-12-06T13:55:25.746Z,5.20
2022-12-06T13:57:56.109Z,5.20
2022-12-06T14:00:43.462Z,5.20
2022-12-06T14:03:16.927Z,5.20
2022-12-06T14:06:09.078Z,5.20
2022-12-06T14:08:52.296Z,5.30
2022-12-06T14:11:24.559Z,5.30
2022-12-06T14:14:00.611Z,5.30
2022-12-06T14:16:42.702Z,5.30
2022-12-06T14:19:24.295Z,5.30
2022-12-06T14:21:57.173Z,5.30
2022-12-06T14:24:40.122Z,5.20
2022-12-06T14:27:22.193Z,5.20
2022-12-06T14:30:06.428Z,5.20
2022-12-06T14:32:38.222Z,5.20
2022-12-06T14:35:18.088Z,5.20
2022-12-06T14:37:58.646Z,5.20
2022-12-06T14:40:50.646Z,5.20
2022-12-06T14:43:19.493Z,5.20
2022-12-06T14:45:47.059Z,5.10
2022-12-06T14:48:15.549Z,5.10
2022-12-06T14:50:52.423Z,5.10
2022-12-06T14:53:37.148Z,5.10
2022-12-06T14:56:06.237Z,5.10
2022-12-06T14:58:43.275Z,5.10
2022-12-06T15:01:21.608Z,5.00
2022-12-06T15:03:59.975Z,5.00
2022-12-06T15:06:29.557Z,5.00
2022-12-06T15:08:59.637Z,5.00
2022-12-06T15:11:47.987Z,5.00
2022-12-06T15:14:29.952Z,5.00
2022-12-06T15:17:11.039Z,5.00
2022-12-06T15:19:40.591Z,5.00
2022-12-06T15:22:26.722Z,5.00
2022-12-06T15:24:56.697Z,5.00
2022-12-06T15:27:27.167Z,4.90
2022-12-06T15:29:57.113Z,4.90
2022-12-06T15:32:27.463Z,4.90
2022-12-06T15:34:56.748Z,4.90
2022-12-06T15:37:38.788Z,4.90
2022-12-06T15:40:07.944Z,4.90
2022-12-06T15:42:36.188Z,4.90
2022-12-06T15:45:03.706Z,4.90
2022-12-06T15:47:30.918Z,4.90
2022-12-06T15:49:58.664Z,4.90
2022-12-06T15:52:26.977Z,4.90
2022-12-06T15:54:54.233Z,4.90
2022-12-06T15:57:21.406Z,4.90
2022-12-06T15:59:48.531Z,4.90
2022-12-06T16:02:19.002Z,4.90
2022-12-06T16:04:48.666Z,4.90
2022-12-06T16:07:19.404Z,4.80
2022-12-06T16:09:47.723Z,4.80
2022-12-06T16:12:16.076Z,4.80
2022-12-06T16:14:43.456Z,4.80
2022-12-06T16:17:10.699Z,4.80
2022-12-06T16:19:56.279Z,4.80
2022-12-06T16:22:43.381Z,4.80
2022-12-06T16:25:10.671Z,4.80
2022-12-06T16:27:38.348Z,4.80
2022-12-06T16:30:07.148Z,4.80
2022-12-06T16:32:34.135Z,4.70
2022-12-06T16:35:01.508Z,4.70
2022-12-06T16:37:28.868Z,4.70
2022-12-06T16:39:58.917Z,4.70
2022-12-06T16:42:25.948Z,4.70
2022-12-06T16:44:53.094Z,4.60
2022-12-06T16:49:48.077Z,4.50
2022-12-06T16:52:17.132Z,4.50
2022-12-06T16:54:44.741Z,4.50
2022-12-06T16:57:13.055Z,4.50
2022-12-06T16:59:42.912Z,4.60
2022-12-06T17:02:30.611Z,4.60
2022-12-06T17:05:01.302Z,4.60
2022-12-06T17:07:29.316Z,4.50
2022-12-06T17:09:56.829Z,4.50
2022-12-06T17:12:24.125Z,4.60
2022-12-06T17:14:51.539Z,4.60
2022-12-06T17:17:21.710Z,4.50
2022-12-06T17:19:49.893Z,4.50
2022-12-06T17:22:18.827Z,4.50
2022-12-06T17:24:46.351Z,4.50
2022-12-06T17:27:15.173Z,4.50
2022-12-06T17:29:43.978Z,4.40
2022-12-06T17:32:12.092Z,4.50
2022-12-06T17:34:39.267Z,4.50
2022-12-06T17:37:06.624Z,4.40
2022-12-06T17:39:33.994Z,4.50
2022-12-06T17:42:19.692Z,4.40
2022-12-06T17:44:49.107Z,4.50
2022-12-06T17:47:16.259Z,4.50
2022-12-06T17:49:43.313Z,4.40
2022-12-06T17:52:13.456Z,4.40
2022-12-06T17:54:40.916Z,4.40
2022-12-06T17:57:16.391Z,4.40
2022-12-06T17:59:44.646Z,4.40
2022-12-06T18:02:18.762Z,4.30
2022-12-06T18:04:47.710Z,4.30
2022-12-06T18:07:15.660Z,4.30
2022-12-06T18:09:43.166Z,4.30
2022-12-06T18:12:12.295Z,4.20
2022-12-06T18:14:39.713Z,4.30
2022-12-06T18:17:07.189Z,4.20
2022-12-06T18:19:34.856Z,4.20
2022-12-06T18:22:02.270Z,4.20
2022-12-06T18:24:35.441Z,4.20
2022-12-06T18:27:07.107Z,4.20
2022-12-06T18:29:35.378Z,4.10
2022-12-06T18:32:04.096Z,4.10
2022-12-06T18:34:32.004Z,4.10
2022-12-06T18:36:59.293Z,4.10
2022-12-06T18:39:26.669Z,4.00
2022-12-06T18:41:54.753Z,4.00
2022-12-06T18:44:25.113Z,4.00
2022-12-06T18:46:52.508Z,4.00
2022-12-06T18:49:19.636Z,4.00
2022-12-06T18:51:46.928Z,3.90
2022-12-06T18:54:14.357Z,3.90
2022-12-06T18:56:42.214Z,3.90
2022-12-06T18:59:11.322Z,3.90
2022-12-06T19:01:39.589Z,3.90
2022-12-06T19:04:14.991Z,3.80
2022-12-06T19:06:44.144Z,3.80
2022-12-06T19:09:13.765Z,3.80
2022-12-06T19:11:43.328Z,3.70
2022-12-06T19:14:10.851Z,3.70
2022-12-06T19:16:48.012Z,3.60
2022-12-06T19:19:22.209Z,3.60
2022-12-06T19:21:51.092Z,3.60
2022-12-06T19:24:21.789Z,3.50
2022-12-06T19:26:53.015Z,3.50
2022-12-06T19:29:20.540Z,3.50
2022-12-06T19:31:47.975Z,3.40
2022-12-06T19:34:24.729Z,3.40
2022-12-06T19:36:53.637Z,3.30
2022-12-06T19:39:21.513Z,3.30
2022-12-06T19:42:07.392Z,3.20
2022-12-06T19:44:34.663Z,3.20
2022-12-06T19:47:01.911Z,3.10
2022-12-06T19:49:29.374Z,3.10
2022-12-06T19:51:56.646Z,3.00
2022-12-06T19:54:29.997Z,3.00
2022-12-06T19:56:59.277Z,3.00
2022-12-06T19:59:29.001Z,3.00
2022-12-06T20:01:58.521Z,2.90
2022-12-06T20:04:30.904Z,2.90
2022-12-06T20:06:58.735Z,2.90
2022-12-06T20:09:27.794Z,2.90
2022-12-06T20:12:01.883Z,2.90
2022-12-06T20:14:36.494Z,2.90
2022-12-06T20:17:07.565Z,2.90
2022-12-06T20:19:36.648Z,2.80
2022-12-06T20:22:04.470Z,2.90
2022-12-06T20:24:33.045Z,2.80
2022-12-06T20:27:02.317Z,2.90
2022-12-06T20:29:30.362Z,2.80
2022-12-06T20:31:59.544Z,2.90
2022-12-06T20:34:34.555Z,2.80
2022-12-06T20:37:06.147Z,2.90
2022-12-06T20:39:35.963Z,2.90
2022-12-06T20:42:06.044Z,2.90
2022-12-06T20:44:34.140Z,2.90
2022-12-06T20:47:01.498Z,2.90
2022-12-06T20:49:28.733Z,2.90
2022-12-06T20:51:56.922Z,2.90
2022-12-06T20:54:23.976Z,2.90
2022-12-06T20:56:53.813Z,2.80
2022-12-06T20:59:21.416Z,2.70
2022-12-06T21:01:48.822Z,2.70
2022-12-06T21:04:16.329Z,2.60
2022-12-06T21:06:43.786Z,2.60
2022-12-06T21:09:11.110Z,2.60
2022-12-06T21:11:38.380Z,2.70
2022-12-06T21:14:06.334Z,2.70
2022-12-06T21:16:35.612Z,2.70
2022-12-06T21:19:08.994Z,2.70
2022-12-06T21:21:38.694Z,2.70
2022-12-06T21:24:12.083Z,2.70
2022-12-06T21:26:39.421Z,2.70
2022-12-06T21:29:07.096Z,2.70
2022-12-06T21:31:36.668Z,2.80
2022-12-06T21:34:04.635Z,2.70
2022-12-06T21:36:32.228Z,2.70
2022-12-06T21:38:59.750Z,2.70
2022-12-06T21:41:27.559Z,2.70
2022-12-06T21:43:54.909Z,2.70
2022-12-06T21:46:25.163Z,2.70
2022-12-06T21:48:57.705Z,2.70
2022-12-06T21:51:27.430Z,2.70
2022-12-06T21:53:55.096Z,2.70
2022-12-06T21:56:28.187Z,2.70
2022-12-06T21:58:55.922Z,2.80
2022-12-06T22:01:25.655Z,2.70
2022-12-06T22:03:54.659Z,2.70
2022-12-06T22:06:22.449Z,2.80
2022-12-06T22:08:55.726Z,2.80
2022-12-06T22:11:22.906Z,2.80
2022-12-06T22:13:50.880Z,2.80
2022-12-06T22:16:19.408Z,2.90
2022-12-06T22:18:46.991Z,2.90
2022-12-06T22:21:17.758Z,2.90
2022-12-06T22:23:45.781Z,2.90
2022-12-06T22:26:18.567Z,2.90
2022-12-06T22:28:46.111Z,2.90
2022-12-06T22:31:16.491Z,2.90
2022-12-06T22:33:44.350Z,2.90
2022-12-06T22:36:13.173Z,2.90
2022-12-06T22:38:41.057Z,2.90
2022-12-06T22:41:09.429Z,2.90
2022-12-06T22:43:37.516Z,2.90
2022-12-06T22:46:13.955Z,2.90
2022-12-06T22:48:42.296Z,2.80
2022-12-06T22:51:15.201Z,2.80
2022-12-06T22:53:45.495Z,2.90
2022-12-06T22:56:14.043Z,2.80
2022-12-06T22:58:42.008Z,2.90
2022-12-06T23:01:17.220Z,2.80
2022-12-06T23:03:46.520Z,2.80
2022-12-06T23:06:15.233Z,2.90
2022-12-06T23:08:43.322Z,2.90
2022-12-06T23:11:13.930Z,2.90
2022-12-06T23:13:41.930Z,2.90
2022-12-06T23:16:13.671Z,2.90
2022-12-06T23:18:41.159Z,2.90
2022-12-06T23:21:20.802Z,2.90
2022-12-06T23:23:50.443Z,2.90
2022-12-06T23:26:25.751Z,2.80
2022-12-06T23:28:53.335Z,2.90
2022-12-06T23:31:23.458Z,2.90
2022-12-06T23:33:59.131Z,2.90
2022-12-06T23:36:31.668Z,2.90
2022-12-06T23:38:58.924Z,2.90
2022-12-06T23:41:28.765Z,2.90
2022-12-06T23:43:57.000Z,2.90
2022-12-06T23:46:29.544Z,2.90
2022-12-06T23:48:57.556Z,3.00
2022-12-06T23:51:27.402Z,2.90
2022-12-06T23:53:59.669Z,2.90
2022-12-06T23:56:33.873Z,2.90
2022-12-06T23:59:02.265Z,2.90
